sensor_id;sensor_type;location;lat;lon;timestamp;temperature;humidity
6174;DHT22;3120;48.796;9.796;2024-01-27T00:01:12;1.40;99.90
6174;DHT22;3120;48.796;9.796;2024-01-27T00:03:38;1.30;99.90
6174;DHT22;3120;48.796;9.796;2024-01-27T00:06:03;1.40;99.90
6174;DHT22;3120;48.796;9.796;2024-01-27T00:08:29;1.40;99.90
6174;DHT22;3120;48.796;9.796;2024-01-27T00:10:55;1.40;99.90
6174;DHT22;3120;48.796;9.796;2024-01-27T00:13:20;1.40;99.90
6174;DHT22;3120;48.796;9.796;2024-01-27T00:15:46;1.30;99.90
6174;DHT22;3120;48.796;9.796;2024-01-27T00:18:11;1.30;99.90
6174;DHT22;3120;48.796;9.796;2024-01-27T00:20:37;1.20;99.90
6174;DHT22;3120;48.796;9.796;2024-01-27T00:23:03;1.20;99.90
6174;DHT22;3120;48.796;9.796;2024-01-27T00:25:29;1.20;99.90
6174;DHT22;3120;48.796;9.796;2024-01-27T00:27:55;1.20;99.90
6174;DHT22;3120;48.796;9.796;2024-01-27T00:30:20;1.20;99.90
6174;DHT22;3120;48.796;9.796;2024-01-27T00:32:46;1.10;99.90
6174;DHT22;3120;48.796;9.796;2024-01-27T00:35:12;1.30;99.90
6174;DHT22;3120;48.796;9.796;2024-01-27T00:37:40;1.30;99.90
6174;DHT22;3120;48.796;9.796;2024-01-27T00:40:12;1.20;99.90
6174;DHT22;3120;48.796;9.796;2024-01-27T00:42:38;1.10;99.90
6174;DHT22;3120;48.796;9.796;2024-01-27T00:45:04;1.00;99.90
6174;DHT22;3120;48.796;9.796;2024-01-27T00:47:30;0.90;99.90
6174;DHT22;3120;48.796;9.796;2024-01-27T00:49:56;0.80;99.90
6174;DHT22;3120;48.796;9.796;2024-01-27T00:52:22;0.90;99.90
6174;DHT22;3120;48.796;9.796;2024-01-27T00:54:48;0.90;99.90
6174;DHT22;3120;48.796;9.796;2024-01-27T00:57:14;0.80;99.90
6174;DHT22;3120;48.796;9.796;2024-01-27T00:59:39;0.70;99.90
6174;DHT22;3120;48.796;9.796;2024-01-27T01:02:06;0.70;99.90
6174;DHT22;3120;48.796;9.796;2024-01-27T01:04:31;0.60;99.90
6174;DHT22;3120;48.796;9.796;2024-01-27T01:06:57;0.70;99.90
6174;DHT22;3120;48.796;9.796;2024-01-27T01:09:22;0.70;99.90
6174;DHT22;3120;48.796;9.796;2024-01-27T01:11:48;0.70;99.90
6174;DHT22;3120;48.796;9.796;2024-01-27T01:14:14;0.60;99.90
6174;DHT22;3120;48.796;9.796;2024-01-27T01:16:40;0.70;99.90
6174;DHT22;3120;48.796;9.796;2024-01-27T01:19:05;0.80;99.90
6174;DHT22;3120;48.796;9.796;2024-01-27T01:21:31;0.80;99.90
6174;DHT22;3120;48.796;9.796;2024-01-27T01:23:57;0.80;99.90
6174;DHT22;3120;48.796;9.796;2024-01-27T01:26:23;0.70;99.90
6174;DHT22;3120;48.796;9.796;2024-01-27T01:28:49;0.70;99.90
6174;DHT22;3120;48.796;9.796;2024-01-27T01:31:14;0.70;99.90
6174;DHT22;3120;48.796;9.796;2024-01-27T01:33:40;0.80;99.90
6174;DHT22;3120;48.796;9.796;2024-01-27T01:36:05;0.60;99.90
6174;DHT22;3120;48.796;9.796;2024-01-27T01:38:31;0.60;99.90
6174;DHT22;3120;48.796;9.796;2024-01-27T01:40:56;0.50;99.90
6174;DHT22;3120;48.796;9.796;2024-01-27T01:43:22;0.50;99.90
6174;DHT22;3120;48.796;9.796;2024-01-27T01:45:47;0.50;99.90
6174;DHT22;3120;48.796;9.796;2024-01-27T01:48:15;0.50;99.90
6174;DHT22;3120;48.796;9.796;2024-01-27T01:50:41;0.50;99.90
6174;DHT22;3120;48.796;9.796;2024-01-27T01:53:07;0.60;99.90
6174;DHT22;3120;48.796;9.796;2024-01-27T01:55:34;0.50;99.90
6174;DHT22;3120;48.796;9.796;2024-01-27T01:57:59;0.50;99.90
6174;DHT22;3120;48.796;9.796;2024-01-27T02:00:25;0.40;99.90
6174;DHT22;3120;48.796;9.796;2024-01-27T02:02:50;0.40;99.90
6174;DHT22;3120;48.796;9.796;2024-01-27T02:05:16;0.30;99.90
6174;DHT22;3120;48.796;9.796;2024-01-27T02:07:41;0.40;99.90
6174;DHT22;3120;48.796;9.796;2024-01-27T02:10:13;0.40;99.90
6174;DHT22;3120;48.796;9.796;2024-01-27T02:12:41;0.40;99.90
6174;DHT22;3120;48.796;9.796;2024-01-27T02:15:10;0.40;99.90
6174;DHT22;3120;48.796;9.796;2024-01-27T02:20:05;0.50;99.90
6174;DHT22;3120;48.796;9.796;2024-01-27T02:22:35;0.40;99.90
6174;DHT22;3120;48.796;9.796;2024-01-27T02:25:01;0.20;99.90
6174;DHT22;3120;48.796;9.796;2024-01-27T02:27:27;0.20;99.90
6174;DHT22;3120;48.796;9.796;2024-01-27T02:29:53;0.20;99.90
6174;DHT22;3120;48.796;9.796;2024-01-27T02:32:18;0.20;99.90
6174;DHT22;3120;48.796;9.796;2024-01-27T02:34:44;0.30;99.90
6174;DHT22;3120;48.796;9.796;2024-01-27T02:37:09;0.30;99.90
6174;DHT22;3120;48.796;9.796;2024-01-27T02:39:35;0.40;99.90
6174;DHT22;3120;48.796;9.796;2024-01-27T02:42:01;0.40;99.90
6174;DHT22;3120;48.796;9.796;2024-01-27T02:44:27;0.30;99.90
6174;DHT22;3120;48.796;9.796;2024-01-27T02:46:52;0.30;99.90
6174;DHT22;3120;48.796;9.796;2024-01-27T02:49:18;0.30;99.90
6174;DHT22;3120;48.796;9.796;2024-01-27T02:51:43;0.30;99.90
6174;DHT22;3120;48.796;9.796;2024-01-27T02:54:09;0.20;99.90
6174;DHT22;3120;48.796;9.796;2024-01-27T02:56:35;0.10;99.90
6174;DHT22;3120;48.796;9.796;2024-01-27T02:59:01;0.10;99.90
6174;DHT22;3120;48.796;9.796;2024-01-27T03:01:27;0.20;99.90
6174;DHT22;3120;48.796;9.796;2024-01-27T03:03:52;0.30;99.90
6174;DHT22;3120;48.796;9.796;2024-01-27T03:06:18;0.20;99.90
6174;DHT22;3120;48.796;9.796;2024-01-27T03:08:43;0.10;99.90
6174;DHT22;3120;48.796;9.796;2024-01-27T03:11:09;0.00;99.90
6174;DHT22;3120;48.796;9.796;2024-01-27T03:13:34;0.10;99.90
6174;DHT22;3120;48.796;9.796;2024-01-27T03:16:00;0.10;99.90
6174;DHT22;3120;48.796;9.796;2024-01-27T03:18:26;0.10;99.90
6174;DHT22;3120;48.796;9.796;2024-01-27T03:20:51;0.00;99.90
6174;DHT22;3120;48.796;9.796;2024-01-27T03:23:17;0.10;99.90
6174;DHT22;3120;48.796;9.796;2024-01-27T03:25:42;0.10;99.90
6174;DHT22;3120;48.796;9.796;2024-01-27T03:28:08;0.00;99.90
6174;DHT22;3120;48.796;9.796;2024-01-27T03:30:34;0.00;99.90
6174;DHT22;3120;48.796;9.796;2024-01-27T03:32:59;0.00;99.90
6174;DHT22;3120;48.796;9.796;2024-01-27T03:35:25;0.00;99.90
6174;DHT22;3120;48.796;9.796;2024-01-27T03:37:50;0.00;99.90
6174;DHT22;3120;48.796;9.796;2024-01-27T03:40:17;0.00;99.90
6174;DHT22;3120;48.796;9.796;2024-01-27T03:42:43;0.00;99.90
6174;DHT22;3120;48.796;9.796;2024-01-27T03:45:09;0.10;99.90
6174;DHT22;3120;48.796;9.796;2024-01-27T03:47:34;0.10;99.90
6174;DHT22;3120;48.796;9.796;2024-01-27T03:50:00;0.00;99.90
6174;DHT22;3120;48.796;9.796;2024-01-27T03:52:25;0.00;99.90
6174;DHT22;3120;48.796;9.796;2024-01-27T03:54:51;0.00;99.90
6174;DHT22;3120;48.796;9.796;2024-01-27T03:57:16;0.00;99.90
6174;DHT22;3120;48.796;9.796;2024-01-27T03:59:42;0.10;99.90
6174;DHT22;3120;48.796;9.796;2024-01-27T04:02:08;0.10;99.90
6174;DHT22;3120;48.796;9.796;2024-01-27T04:04:35;0.10;99.90
6174;DHT22;3120;48.796;9.796;2024-01-27T04:07:01;0.10;99.90
6174;DHT22;3120;48.796;9.796;2024-01-27T04:09:27;0.20;99.90
6174;DHT22;3120;48.796;9.796;2024-01-27T04:11:52;0.20;99.90
6174;DHT22;3120;48.796;9.796;2024-01-27T04:14:18;0.20;99.90
6174;DHT22;3120;48.796;9.796;2024-01-27T04:16:43;0.20;99.90
6174;DHT22;3120;48.796;9.796;2024-01-27T04:19:09;0.20;99.90
6174;DHT22;3120;48.796;9.796;2024-01-27T04:21:35;0.20;99.90
6174;DHT22;3120;48.796;9.796;2024-01-27T04:24:00;0.20;99.90
6174;DHT22;3120;48.796;9.796;2024-01-27T04:26:26;0.10;99.90
6174;DHT22;3120;48.796;9.796;2024-01-27T04:28:51;0.10;99.90
6174;DHT22;3120;48.796;9.796;2024-01-27T04:31:17;0.20;99.90
6174;DHT22;3120;48.796;9.796;2024-01-27T04:33:43;0.20;99.90
6174;DHT22;3120;48.796;9.796;2024-01-27T04:36:08;0.20;99.90
6174;DHT22;3120;48.796;9.796;2024-01-27T04:38:35;0.10;99.90
6174;DHT22;3120;48.796;9.796;2024-01-27T04:41:01;0.10;99.90
6174;DHT22;3120;48.796;9.796;2024-01-27T04:43:27;0.10;99.90
6174;DHT22;3120;48.796;9.796;2024-01-27T04:45:54;-0.10;99.90
6174;DHT22;3120;48.796;9.796;2024-01-27T04:48:19;-0.10;99.90
6174;DHT22;3120;48.796;9.796;2024-01-27T04:50:45;-0.20;99.90
6174;DHT22;3120;48.796;9.796;2024-01-27T04:53:12;-0.20;99.90
6174;DHT22;3120;48.796;9.796;2024-01-27T04:55:37;-0.20;99.90
6174;DHT22;3120;48.796;9.796;2024-01-27T04:58:03;-0.10;99.90
6174;DHT22;3120;48.796;9.796;2024-01-27T05:00:29;0.00;99.90
6174;DHT22;3120;48.796;9.796;2024-01-27T05:02:55;0.10;99.90
6174;DHT22;3120;48.796;9.796;2024-01-27T05:05:22;0.10;99.90
6174;DHT22;3120;48.796;9.796;2024-01-27T05:07:48;0.10;99.90
6174;DHT22;3120;48.796;9.796;2024-01-27T05:10:15;0.00;99.90
6174;DHT22;3120;48.796;9.796;2024-01-27T05:12:41;0.00;99.90
6174;DHT22;3120;48.796;9.796;2024-01-27T05:15:07;-0.10;99.90
6174;DHT22;3120;48.796;9.796;2024-01-27T05:17:33;-0.10;99.90
6174;DHT22;3120;48.796;9.796;2024-01-27T05:19:59;-0.20;99.90
6174;DHT22;3120;48.796;9.796;2024-01-27T05:22:24;-0.30;99.90
6174;DHT22;3120;48.796;9.796;2024-01-27T05:24:50;-0.20;99.90
6174;DHT22;3120;48.796;9.796;2024-01-27T05:27:16;-0.20;99.90
6174;DHT22;3120;48.796;9.796;2024-01-27T05:29:41;-0.20;99.90
6174;DHT22;3120;48.796;9.796;2024-01-27T05:32:07;-0.30;99.90
6174;DHT22;3120;48.796;9.796;2024-01-27T05:34:33;-0.20;99.90
6174;DHT22;3120;48.796;9.796;2024-01-27T05:36:59;-0.20;99.90
6174;DHT22;3120;48.796;9.796;2024-01-27T05:39:24;-0.10;99.90
6174;DHT22;3120;48.796;9.796;2024-01-27T05:41:50;0.00;99.90
6174;DHT22;3120;48.796;9.796;2024-01-27T05:44:15;0.00;99.90
6174;DHT22;3120;48.796;9.796;2024-01-27T05:46:41;0.00;99.90
6174;DHT22;3120;48.796;9.796;2024-01-27T05:49:06;0.10;99.90
6174;DHT22;3120;48.796;9.796;2024-01-27T05:51:32;0.10;99.90
6174;DHT22;3120;48.796;9.796;2024-01-27T05:53:58;0.20;99.90
6174;DHT22;3120;48.796;9.796;2024-01-27T05:56:23;0.20;99.90
6174;DHT22;3120;48.796;9.796;2024-01-27T05:58:49;0.10;99.90
6174;DHT22;3120;48.796;9.796;2024-01-27T06:01:15;0.10;99.90
6174;DHT22;3120;48.796;9.796;2024-01-27T06:03:44;0.10;99.90
6174;DHT22;3120;48.796;9.796;2024-01-27T06:06:09;0.10;99.90
6174;DHT22;3120;48.796;9.796;2024-01-27T06:08:35;0.10;99.90
6174;DHT22;3120;48.796;9.796;2024-01-27T06:11:01;0.10;99.90
6174;DHT22;3120;48.796;9.796;2024-01-27T06:13:26;0.20;99.90
6174;DHT22;3120;48.796;9.796;2024-01-27T06:15:52;0.10;99.90
6174;DHT22;3120;48.796;9.796;2024-01-27T06:18:18;0.20;99.90
6174;DHT22;3120;48.796;9.796;2024-01-27T06:20:44;0.30;99.90
6174;DHT22;3120;48.796;9.796;2024-01-27T06:23:09;0.30;99.90
6174;DHT22;3120;48.796;9.796;2024-01-27T06:25:35;0.30;99.90
6174;DHT22;3120;48.796;9.796;2024-01-27T06:28:00;0.30;99.90
6174;DHT22;3120;48.796;9.796;2024-01-27T06:30:26;0.20;99.90
6174;DHT22;3120;48.796;9.796;2024-01-27T06:32:51;0.30;99.90
6174;DHT22;3120;48.796;9.796;2024-01-27T06:35:17;0.30;99.90
6174;DHT22;3120;48.796;9.796;2024-01-27T06:37:43;0.40;99.90
6174;DHT22;3120;48.796;9.796;2024-01-27T06:40:09;0.30;99.90
6174;DHT22;3120;48.796;9.796;2024-01-27T06:42:35;0.20;99.90
6174;DHT22;3120;48.796;9.796;2024-01-27T06:45:00;0.20;99.90
6174;DHT22;3120;48.796;9.796;2024-01-27T06:47:26;0.20;99.90
6174;DHT22;3120;48.796;9.796;2024-01-27T06:49:52;0.20;99.90
6174;DHT22;3120;48.796;9.796;2024-01-27T06:52:17;0.10;99.90
6174;DHT22;3120;48.796;9.796;2024-01-27T06:54:43;0.00;99.90
6174;DHT22;3120;48.796;9.796;2024-01-27T06:57:29;0.00;99.90
6174;DHT22;3120;48.796;9.796;2024-01-27T06:59:55;0.10;99.90
6174;DHT22;3120;48.796;9.796;2024-01-27T07:02:27;0.10;99.90
6174;DHT22;3120;48.796;9.796;2024-01-27T07:04:54;0.00;99.90
6174;DHT22;3120;48.796;9.796;2024-01-27T07:07:26;0.00;99.90
6174;DHT22;3120;48.796;9.796;2024-01-27T07:09:54;-0.10;99.90
6174;DHT22;3120;48.796;9.796;2024-01-27T07:12:20;-0.10;99.90
6174;DHT22;3120;48.796;9.796;2024-01-27T07:14:45;-0.10;99.90
6174;DHT22;3120;48.796;9.796;2024-01-27T07:17:11;-0.10;99.90
6174;DHT22;3120;48.796;9.796;2024-01-27T07:19:36;0.00;99.90
6174;DHT22;3120;48.796;9.796;2024-01-27T07:22:02;0.10;99.90
6174;DHT22;3120;48.796;9.796;2024-01-27T07:24:29;0.10;99.90
6174;DHT22;3120;48.796;9.796;2024-01-27T07:26:55;0.10;99.90
6174;DHT22;3120;48.796;9.796;2024-01-27T07:29:20;0.10;99.90
6174;DHT22;3120;48.796;9.796;2024-01-27T07:31:46;0.20;99.90
6174;DHT22;3120;48.796;9.796;2024-01-27T07:34:12;0.20;99.90
6174;DHT22;3120;48.796;9.796;2024-01-27T07:36:38;0.20;99.90
6174;DHT22;3120;48.796;9.796;2024-01-27T07:39:04;0.20;99.90
6174;DHT22;3120;48.796;9.796;2024-01-27T07:41:31;0.30;99.90
6174;DHT22;3120;48.796;9.796;2024-01-27T07:43:56;0.40;99.90
6174;DHT22;3120;48.796;9.796;2024-01-27T07:46:22;0.30;99.90
6174;DHT22;3120;48.796;9.796;2024-01-27T07:48:51;0.30;99.90
6174;DHT22;3120;48.796;9.796;2024-01-27T07:51:17;0.20;99.90
6174;DHT22;3120;48.796;9.796;2024-01-27T07:53:42;0.20;99.90
6174;DHT22;3120;48.796;9.796;2024-01-27T07:56:08;0.20;99.90
6174;DHT22;3120;48.796;9.796;2024-01-27T07:58:33;0.20;99.90
6174;DHT22;3120;48.796;9.796;2024-01-27T08:00:59;0.20;99.90
6174;DHT22;3120;48.796;9.796;2024-01-27T08:03:25;0.20;99.90
6174;DHT22;3120;48.796;9.796;2024-01-27T08:05:51;0.60;99.90
6174;DHT22;3120;48.796;9.796;2024-01-27T08:08:16;0.40;99.90
6174;DHT22;3120;48.796;9.796;2024-01-27T08:10:42;0.30;99.90
6174;DHT22;3120;48.796;9.796;2024-01-27T08:13:07;0.30;99.90
6174;DHT22;3120;48.796;9.796;2024-01-27T08:15:33;0.30;99.90
6174;DHT22;3120;48.796;9.796;2024-01-27T08:17:58;0.30;99.90
6174;DHT22;3120;48.796;9.796;2024-01-27T08:20:24;0.50;99.90
6174;DHT22;3120;48.796;9.796;2024-01-27T08:22:50;0.60;99.90
6174;DHT22;3120;48.796;9.796;2024-01-27T08:25:17;0.60;99.90
6174;DHT22;3120;48.796;9.796;2024-01-27T08:27:43;0.60;99.90
6174;DHT22;3120;48.796;9.796;2024-01-27T08:30:09;0.60;99.90
6174;DHT22;3120;48.796;9.796;2024-01-27T08:32:35;0.70;99.90
6174;DHT22;3120;48.796;9.796;2024-01-27T08:35:01;0.80;99.90
6174;DHT22;3120;48.796;9.796;2024-01-27T08:37:26;1.10;99.90
6174;DHT22;3120;48.796;9.796;2024-01-27T08:39:52;1.20;99.90
6174;DHT22;3120;48.796;9.796;2024-01-27T08:42:18;1.20;99.90
6174;DHT22;3120;48.796;9.796;2024-01-27T08:44:44;1.10;99.90
6174;DHT22;3120;48.796;9.796;2024-01-27T08:47:09;1.00;99.90
6174;DHT22;3120;48.796;9.796;2024-01-27T08:49:35;1.10;99.90
6174;DHT22;3120;48.796;9.796;2024-01-27T08:52:01;1.00;99.90
6174;DHT22;3120;48.796;9.796;2024-01-27T08:54:26;1.10;99.90
6174;DHT22;3120;48.796;9.796;2024-01-27T08:56:52;1.30;99.90
6174;DHT22;3120;48.796;9.796;2024-01-27T08:59:17;1.40;99.90
6174;DHT22;3120;48.796;9.796;2024-01-27T09:01:43;1.40;99.90
6174;DHT22;3120;48.796;9.796;2024-01-27T09:04:09;2.20;99.90
6174;DHT22;3120;48.796;9.796;2024-01-27T09:06:34;3.50;99.90
6174;DHT22;3120;48.796;9.796;2024-01-27T09:09:00;4.40;99.90
6174;DHT22;3120;48.796;9.796;2024-01-27T09:11:26;4.60;99.90
6174;DHT22;3120;48.796;9.796;2024-01-27T09:13:53;4.60;99.90
6174;DHT22;3120;48.796;9.796;2024-01-27T09:16:18;5.10;99.90
6174;DHT22;3120;48.796;9.796;2024-01-27T09:18:44;4.90;99.90
6174;DHT22;3120;48.796;9.796;2024-01-27T09:21:11;4.90;99.90
6174;DHT22;3120;48.796;9.796;2024-01-27T09:23:37;5.50;99.90
6174;DHT22;3120;48.796;9.796;2024-01-27T09:26:03;6.50;99.90
6174;DHT22;3120;48.796;9.796;2024-01-27T09:28:29;6.40;99.90
6174;DHT22;3120;48.796;9.796;2024-01-27T09:30:55;6.90;99.90
6174;DHT22;3120;48.796;9.796;2024-01-27T09:33:20;6.80;99.90
6174;DHT22;3120;48.796;9.796;2024-01-27T09:35:51;7.00;99.90
6174;DHT22;3120;48.796;9.796;2024-01-27T09:38:16;7.10;99.90
6174;DHT22;3120;48.796;9.796;2024-01-27T12:38:52;7.10;99.90
6174;DHT22;3120;48.796;9.796;2024-01-27T12:41:18;12.40;71.50
6174;DHT22;3120;48.796;9.796;2024-01-27T12:43:44;12.30;70.40
6174;DHT22;3120;48.796;9.796;2024-01-27T12:46:09;13.00;67.30
6174;DHT22;3120;48.796;9.796;2024-01-27T12:48:36;12.80;68.20
6174;DHT22;3120;48.796;9.796;2024-01-27T12:51:01;12.30;68.30
6174;DHT22;3120;48.796;9.796;2024-01-27T12:53:28;12.30;69.50
6174;DHT22;3120;48.796;9.796;2024-01-27T12:55:53;12.80;68.90
6174;DHT22;3120;48.796;9.796;2024-01-27T12:58:19;12.90;66.50
6174;DHT22;3120;48.796;9.796;2024-01-27T13:00:44;13.50;66.50
6174;DHT22;3120;48.796;9.796;2024-01-27T13:03:10;14.20;64.30
6174;DHT22;3120;48.796;9.796;2024-01-27T13:05:35;13.90;63.10
6174;DHT22;3120;48.796;9.796;2024-01-27T13:08:03;14.50;62.70
6174;DHT22;3120;48.796;9.796;2024-01-27T13:10:29;16.00;58.10
6174;DHT22;3120;48.796;9.796;2024-01-27T13:12:55;16.70;56.70
6174;DHT22;3120;48.796;9.796;2024-01-27T13:15:20;15.70;58.70
6174;DHT22;3120;48.796;9.796;2024-01-27T13:17:48;15.60;57.90
6174;DHT22;3120;48.796;9.796;2024-01-27T13:20:13;15.10;58.10
6174;DHT22;3120;48.796;9.796;2024-01-27T13:22:39;14.70;59.10
6174;DHT22;3120;48.796;9.796;2024-01-27T13:25:06;14.50;59.00
6174;DHT22;3120;48.796;9.796;2024-01-27T13:27:32;14.40;59.60
6174;DHT22;3120;48.796;9.796;2024-01-27T13:29:59;14.50;60.60
6174;DHT22;3120;48.796;9.796;2024-01-27T13:32:25;14.10;60.60
6174;DHT22;3120;48.796;9.796;2024-01-27T13:34:52;14.50;59.60
6174;DHT22;3120;48.796;9.796;2024-01-27T13:37:17;14.70;60.50
6174;DHT22;3120;48.796;9.796;2024-01-27T13:39:43;14.10;61.20
6174;DHT22;3120;48.796;9.796;2024-01-27T13:42:09;13.50;61.10
6174;DHT22;3120;48.796;9.796;2024-01-27T13:44:35;13.00;62.20
6174;DHT22;3120;48.796;9.796;2024-01-27T13:47:03;13.20;62.00
6174;DHT22;3120;48.796;9.796;2024-01-27T13:49:30;13.30;61.00
6174;DHT22;3120;48.796;9.796;2024-01-27T13:51:56;13.80;60.60
6174;DHT22;3120;48.796;9.796;2024-01-27T13:54:22;13.10;62.20
6174;DHT22;3120;48.796;9.796;2024-01-27T13:56:47;12.60;63.40
6174;DHT22;3120;48.796;9.796;2024-01-27T13:59:13;12.20;64.80
6174;DHT22;3120;48.796;9.796;2024-01-27T14:01:39;11.40;68.10
6174;DHT22;3120;48.796;9.796;2024-01-27T14:04:04;10.70;71.30
6174;DHT22;3120;48.796;9.796;2024-01-27T14:06:30;10.20;74.50
6174;DHT22;3120;48.796;9.796;2024-01-27T14:08:56;9.80;76.50
6174;DHT22;3120;48.796;9.796;2024-01-27T14:11:22;9.40;77.60
6174;DHT22;3120;48.796;9.796;2024-01-27T14:13:48;9.00;80.80
6174;DHT22;3120;48.796;9.796;2024-01-27T14:16:13;8.90;81.40
6174;DHT22;3120;48.796;9.796;2024-01-27T14:18:39;8.70;82.40
6174;DHT22;3120;48.796;9.796;2024-01-27T14:21:04;8.90;80.70
6174;DHT22;3120;48.796;9.796;2024-01-27T14:23:30;8.90;80.70
6174;DHT22;3120;48.796;9.796;2024-01-27T14:25:59;8.70;81.40
6174;DHT22;3120;48.796;9.796;2024-01-27T14:28:24;8.70;80.70
6174;DHT22;3120;48.796;9.796;2024-01-27T14:30:51;9.00;80.90
6174;DHT22;3120;48.796;9.796;2024-01-27T14:33:16;9.50;78.50
6174;DHT22;3120;48.796;9.796;2024-01-27T14:35:46;10.30;75.20
6174;DHT22;3120;48.796;9.796;2024-01-27T14:38:13;10.90;73.50
6174;DHT22;3120;48.796;9.796;2024-01-27T14:40:38;11.40;72.40
6174;DHT22;3120;48.796;9.796;2024-01-27T14:43:04;11.40;69.70
6174;DHT22;3120;48.796;9.796;2024-01-27T14:45:34;11.80;69.70
6174;DHT22;3120;48.796;9.796;2024-01-27T14:48:01;12.30;68.40
6174;DHT22;3120;48.796;9.796;2024-01-27T14:50:27;12.40;66.00
6174;DHT22;3120;48.796;9.796;2024-01-27T14:52:53;12.60;65.90
6174;DHT22;3120;48.796;9.796;2024-01-27T14:55:18;12.70;64.30
6174;DHT22;3120;48.796;9.796;2024-01-27T14:57:44;12.30;65.00
6174;DHT22;3120;48.796;9.796;2024-01-27T15:00:10;12.10;65.10
6174;DHT22;3120;48.796;9.796;2024-01-27T15:02:36;11.20;68.90
6174;DHT22;3120;48.796;9.796;2024-01-27T15:05:01;10.80;72.60
6174;DHT22;3120;48.796;9.796;2024-01-27T15:07:27;10.90;70.40
6174;DHT22;3120;48.796;9.796;2024-01-27T15:09:55;10.50;70.50
6174;DHT22;3120;48.796;9.796;2024-01-27T15:12:22;9.70;76.00
6174;DHT22;3120;48.796;9.796;2024-01-27T15:14:49;9.30;77.50
6174;DHT22;3120;48.796;9.796;2024-01-27T15:17:15;9.10;79.00
6174;DHT22;3120;48.796;9.796;2024-01-27T15:19:40;8.80;80.30
6174;DHT22;3120;48.796;9.796;2024-01-27T15:22:06;8.50;83.60
6174;DHT22;3120;48.796;9.796;2024-01-27T15:24:32;8.20;84.20
6174;DHT22;3120;48.796;9.796;2024-01-27T15:27:00;7.90;87.80
6174;DHT22;3120;48.796;9.796;2024-01-27T15:29:26;7.80;89.10
6174;DHT22;3120;48.796;9.796;2024-01-27T15:31:51;7.70;89.90
6174;DHT22;3120;48.796;9.796;2024-01-27T15:34:17;7.50;90.40
6174;DHT22;3120;48.796;9.796;2024-01-27T15:36:42;7.40;91.40
6174;DHT22;3120;48.796;9.796;2024-01-27T15:39:10;7.20;91.90
6174;DHT22;3120;48.796;9.796;2024-01-27T15:41:36;7.10;92.40
6174;DHT22;3120;48.796;9.796;2024-01-27T15:44:01;6.90;92.90
6174;DHT22;3120;48.796;9.796;2024-01-27T15:46:27;6.90;92.20
6174;DHT22;3120;48.796;9.796;2024-01-27T15:48:53;6.80;92.80
6174;DHT22;3120;48.796;9.796;2024-01-27T15:51:18;6.60;94.50
6174;DHT22;3120;48.796;9.796;2024-01-27T15:53:44;6.40;95.50
6174;DHT22;3120;48.796;9.796;2024-01-27T15:56:09;6.20;96.30
6174;DHT22;3120;48.796;9.796;2024-01-27T15:58:35;6.10;96.60
6174;DHT22;3120;48.796;9.796;2024-01-27T16:01:01;6.00;96.50
6174;DHT22;3120;48.796;9.796;2024-01-27T16:03:27;6.00;97.60
6174;DHT22;3120;48.796;9.796;2024-01-27T16:05:52;5.90;97.90
6174;DHT22;3120;48.796;9.796;2024-01-27T16:08:18;5.70;99.90
6174;DHT22;3120;48.796;9.796;2024-01-27T16:10:43;5.40;99.90
6174;DHT22;3120;48.796;9.796;2024-01-27T16:13:10;5.30;99.90
6174;DHT22;3120;48.796;9.796;2024-01-27T16:15:36;5.10;99.90
6174;DHT22;3120;48.796;9.796;2024-01-27T16:18:01;5.10;99.90
6174;DHT22;3120;48.796;9.796;2024-01-27T16:20:27;5.00;99.90
6174;DHT22;3120;48.796;9.796;2024-01-27T16:22:52;4.80;99.90
6174;DHT22;3120;48.796;9.796;2024-01-27T16:25:18;4.80;99.90
6174;DHT22;3120;48.796;9.796;2024-01-27T16:27:43;4.60;99.90
6174;DHT22;3120;48.796;9.796;2024-01-27T16:30:09;4.60;99.90
6174;DHT22;3120;48.796;9.796;2024-01-27T16:32:35;4.50;99.90
6174;DHT22;3120;48.796;9.796;2024-01-27T16:35:01;4.40;99.90
6174;DHT22;3120;48.796;9.796;2024-01-27T16:37:26;4.40;99.90
6174;DHT22;3120;48.796;9.796;2024-01-27T16:39:52;4.30;99.90
6174;DHT22;3120;48.796;9.796;2024-01-27T16:42:17;4.20;99.90
6174;DHT22;3120;48.796;9.796;2024-01-27T16:44:43;4.10;99.90
6174;DHT22;3120;48.796;9.796;2024-01-27T16:47:09;3.90;99.90
6174;DHT22;3120;48.796;9.796;2024-01-27T16:49:37;3.70;99.90
6174;DHT22;3120;48.796;9.796;2024-01-27T16:52:03;3.60;99.90
6174;DHT22;3120;48.796;9.796;2024-01-27T16:54:29;3.50;99.90
6174;DHT22;3120;48.796;9.796;2024-01-27T16:56:54;3.50;99.90
6174;DHT22;3120;48.796;9.796;2024-01-27T16:59:23;3.40;99.90
6174;DHT22;3120;48.796;9.796;2024-01-27T17:01:49;3.40;99.90
6174;DHT22;3120;48.796;9.796;2024-01-27T17:04:17;3.30;99.90
6174;DHT22;3120;48.796;9.796;2024-01-27T17:06:42;3.30;99.90
6174;DHT22;3120;48.796;9.796;2024-01-27T17:09:08;3.30;99.90
6174;DHT22;3120;48.796;9.796;2024-01-27T17:11:34;3.20;99.90
6174;DHT22;3120;48.796;9.796;2024-01-27T17:13:59;3.10;99.90
6174;DHT22;3120;48.796;9.796;2024-01-27T17:16:26;3.00;99.90
6174;DHT22;3120;48.796;9.796;2024-01-27T17:18:52;3.00;99.90
6174;DHT22;3120;48.796;9.796;2024-01-27T17:21:17;2.90;99.90
6174;DHT22;3120;48.796;9.796;2024-01-27T17:23:46;2.90;99.90
6174;DHT22;3120;48.796;9.796;2024-01-27T17:26:12;2.90;99.90
6174;DHT22;3120;48.796;9.796;2024-01-27T17:28:38;2.80;99.90
6174;DHT22;3120;48.796;9.796;2024-01-27T17:31:04;2.70;99.90
6174;DHT22;3120;48.796;9.796;2024-01-27T17:33:29;2.60;99.90
6174;DHT22;3120;48.796;9.796;2024-01-27T17:35:55;2.60;99.90
6174;DHT22;3120;48.796;9.796;2024-01-27T17:38:21;2.50;99.90
6174;DHT22;3120;48.796;9.796;2024-01-27T17:40:47;2.80;99.90
6174;DHT22;3120;48.796;9.796;2024-01-27T17:43:13;2.30;99.90
6174;DHT22;3120;48.796;9.796;2024-01-27T17:45:39;2.20;99.90
6174;DHT22;3120;48.796;9.796;2024-01-27T17:48:06;2.30;99.90
6174;DHT22;3120;48.796;9.796;2024-01-27T17:50:31;2.10;99.90
6174;DHT22;3120;48.796;9.796;2024-01-27T17:52:57;1.40;99.90
6174;DHT22;3120;48.796;9.796;2024-01-27T17:55:23;2.10;99.90
6174;DHT22;3120;48.796;9.796;2024-01-27T17:57:48;1.90;99.90
6174;DHT22;3120;48.796;9.796;2024-01-27T18:00:15;2.00;99.90
6174;DHT22;3120;48.796;9.796;2024-01-27T18:02:46;1.90;99.90
6174;DHT22;3120;48.796;9.796;2024-01-27T18:05:12;2.40;99.90
6174;DHT22;3120;48.796;9.796;2024-01-27T18:07:38;2.30;99.90
6174;DHT22;3120;48.796;9.796;2024-01-27T18:10:07;1.80;99.90
6174;DHT22;3120;48.796;9.796;2024-01-27T18:12:33;1.70;99.90
6174;DHT22;3120;48.796;9.796;2024-01-27T18:15:00;2.40;99.90
6174;DHT22;3120;48.796;9.796;2024-01-27T18:17:25;0.90;99.90
6174;DHT22;3120;48.796;9.796;2024-01-27T18:19:51;1.80;99.90
6174;DHT22;3120;48.796;9.796;2024-01-27T18:22:17;1.40;99.90
6174;DHT22;3120;48.796;9.796;2024-01-27T18:24:42;1.40;99.90
6174;DHT22;3120;48.796;9.796;2024-01-27T18:27:08;1.40;99.90
6174;DHT22;3120;48.796;9.796;2024-01-27T18:29:34;1.30;99.90
6174;DHT22;3120;48.796;9.796;2024-01-27T18:32:01;1.30;99.90
6174;DHT22;3120;48.796;9.796;2024-01-27T18:34:26;1.20;99.90
6174;DHT22;3120;48.796;9.796;2024-01-27T18:36:52;1.20;99.90
6174;DHT22;3120;48.796;9.796;2024-01-27T18:39:18;1.10;99.90
6174;DHT22;3120;48.796;9.796;2024-01-27T18:41:45;1.10;99.90
6174;DHT22;3120;48.796;9.796;2024-01-27T18:44:12;1.20;99.90
6174;DHT22;3120;48.796;9.796;2024-01-27T18:46:42;1.20;99.90
6174;DHT22;3120;48.796;9.796;2024-01-27T18:49:08;1.10;99.90
6174;DHT22;3120;48.796;9.796;2024-01-27T18:51:34;1.10;99.90
6174;DHT22;3120;48.796;9.796;2024-01-27T18:53:59;1.00;99.90
6174;DHT22;3120;48.796;9.796;2024-01-27T18:56:26;1.00;99.90
6174;DHT22;3120;48.796;9.796;2024-01-27T18:58:51;0.90;99.90
6174;DHT22;3120;48.796;9.796;2024-01-27T19:01:17;0.90;99.90
6174;DHT22;3120;48.796;9.796;2024-01-27T19:03:42;0.90;99.90
6174;DHT22;3120;48.796;9.796;2024-01-27T19:06:08;0.80;99.90